Time;durP1;ratioP1;P1;durP2;ratioP2;P2;SDS_P1;SDS_P2;PMS_P1;PMS_P2;Temp;Humidity;BMP_temperature;BMP_pressure;BME280_temperature;BME280_humidity;BME280_pressure;Samples;Min_cycle;Max_cycle;Signal;HPM_P1;HPM_P2
2023/05/29 07:23:02;;;;;;;11.07;3.10;;;;;;;-145.79;51.88;78339.69;5200936;27;2298160;-72
2023/05/29 07:25:33;;;;;;;11.77;3.63;;;;;;;-145.79;51.84;78335.47;5278765;28;20033;-72
2023/05/29 07:28:05;;;;;;;13.43;4.70;;;;;;;-145.79;52.21;78329.09;5279822;28;20472;-72
2023/05/29 07:30:36;;;;;;;12.85;3.65;;;;;;;-145.79;52.03;78305.78;5280068;28;20029;-72
2023/05/29 07:33:07;;;;;;;10.13;3.22;;;;;;;-145.79;51.49;78303.66;5271852;28;20032;-72
2023/05/29 07:35:38;;;;;;;11.02;3.63;;;;;;;-145.79;50.45;78301.53;5259746;28;20428;-72
2023/05/29 07:38:10;;;;;;;13.35;3.50;;;;;;;-145.79;50.75;78286.69;5257960;28;20025;-70
2023/05/29 07:40:41;;;;;;;10.50;3.30;;;;;;;-145.79;50.26;78288.81;5258602;28;20024;-70
2023/05/29 07:43:12;;;;;;;10.77;4.25;;;;;;;-145.79;49.83;78286.69;5258808;28;20021;-72
2023/05/29 07:45:44;;;;;;;8.55;3.15;;;;;;;-145.79;49.79;78271.84;5258035;28;20025;-72
2023/05/29 07:48:15;;;;;;;11.27;3.58;;;;;;;-145.79;49.85;78273.97;5258690;28;20029;-72
2023/05/29 07:50:47;;;;;;;12.63;3.33;;;;;;;-145.79;49.05;78263.38;5270605;28;20028;-71
2023/05/29 07:53:18;;;;;;;12.10;2.83;;;;;;;-145.79;48.99;78257.03;5277804;28;20492;-72
2023/05/29 07:55:49;;;;;;;14.02;4.00;;;;;;;-145.79;49.13;78257.03;5279208;28;20106;-72
2023/05/29 07:58:21;;;;;;;10.98;3.60;;;;;;;-145.79;49.32;78248.53;5279353;28;20031;-72
2023/05/29 08:00:52;;;;;;;11.10;3.60;;;;;;;-145.79;49.24;78252.78;5278430;28;20472;-72
2023/05/29 08:03:24;;;;;;;12.02;4.30;;;;;;;-145.79;48.88;78237.94;5278849;28;20099;-72
2023/05/29 08:05:56;;;;;;;10.77;3.10;;;;;;;-145.79;48.55;78235.81;5279175;28;20035;-72
2023/05/29 08:08:27;;;;;;;8.73;2.95;;;;;;;-145.79;47.94;78235.81;5266420;28;20051;-72
2023/05/29 08:10:58;;;;;;;12.88;3.45;;;;;;;-145.79;47.77;78235.81;5274697;28;20029;-72
2023/05/29 08:13:30;;;;;;;11.57;4.22;;;;;;;-145.79;47.96;78218.84;5278176;28;20029;-71
2023/05/29 08:16:02;;;;;;;10.85;3.20;;;;;;;-145.79;47.48;78206.13;5278888;28;20021;-72
2023/05/29 08:18:34;;;;;;;8.88;4.22;;;;;;;-145.79;47.41;78206.13;5278795;28;20028;-73
2023/05/29 08:21:05;;;;;;;12.93;3.58;;;;;;;-145.79;47.48;78189.19;5259928;28;20048;-70
2023/05/29 08:23:38;;;;;;;12.45;3.60;;;;;;;-145.79;47.21;78187.06;5278068;28;20024;-73
2023/05/29 08:26:09;;;;;;;8.98;3.10;;;;;;;-145.79;46.86;78165.84;5277417;28;20033;-73
2023/05/29 08:28:41;;;;;;;11.43;3.50;;;;;;;-145.79;46.49;78157.38;5277569;28;20027;-73
2023/05/29 08:31:12;;;;;;;9.75;3.05;;;;;;;-145.79;47.21;78151.00;5278532;28;20025;-72
2023/05/29 08:33:46;;;;;;;10.98;3.60;;;;;;;-145.79;46.64;78129.81;5264063;28;20028;-72
2023/05/29 08:36:20;;;;;;;10.52;3.22;;;;;;;-145.79;45.95;78119.22;5253180;28;20025;-72
2023/05/29 08:38:52;;;;;;;12.60;3.65;;;;;;;-145.79;46.04;78131.94;5264595;28;20092;-73
2023/05/29 08:41:37;;;;;;;9.65;3.45;;;;;;;-145.79;46.15;78127.69;5262729;28;20159;-72
2023/05/29 08:44:13;;;;;;;6.80;3.05;;;;;;;-145.79;46.14;78114.97;5254681;28;20154;-72
2023/05/29 08:46:46;;;;;;;9.07;3.08;;;;;;;-145.79;46.17;78102.25;5244094;28;20038;-72
2023/05/29 08:49:20;;;;;;;11.00;3.40;;;;;;;-145.79;46.01;78110.72;5242706;28;20112;-72
2023/05/29 08:52:06;;;;;;;12.57;3.92;;;;;;;-145.79;46.21;78146.78;5247947;28;20159;-72
2023/05/29 08:54:37;;;;;;;;;;;;;;;-145.79;45.84;78110.72;5244031;28;20025;-71
2023/05/29 08:57:11;;;;;;;9.10;3.20;;;;;;;-145.79;46.13;78121.34;5242944;28;19924;-72
2023/05/29 08:59:43;;;;;;;10.77;3.92;;;;;;;-145.79;45.80;78140.41;5244178;28;20029;-72
2023/05/29 09:02:15;;;;;;;12.15;3.33;;;;;;;-145.79;45.67;78110.72;5244157;28;20032;-71
2023/05/29 09:04:52;;;;;;;8.77;3.17;;;;;;;-145.79;45.41;78112.84;5242836;28;20389;-72
2023/05/29 09:07:25;;;;;;;12.43;3.70;;;;;;;-145.79;45.67;78110.72;5227080;28;20037;-74
2023/05/29 09:09:58;;;;;;;8.77;3.63;;;;;;;-145.79;45.20;78098.00;5263264;28;20056;-72
2023/05/29 09:12:30;;;;;;;11.57;3.53;;;;;;;-145.79;45.47;78114.97;5264307;28;20033;-72
2023/05/29 09:15:02;;;;;;;8.35;3.55;;;;;;;-145.79;45.26;78104.38;5262917;28;20048;-71
2023/05/29 09:17:33;;;;;;;9.68;3.50;;;;;;;-145.79;45.13;78100.13;5262150;28;20047;-72
2023/05/29 09:20:14;;;;;;;9.30;3.30;;;;;;;-145.79;45.32;78081.06;5263780;28;20054;-71
2023/05/29 09:23:04;;;;;;;8.27;4.80;;;;;;;-145.79;45.10;78057.72;5263482;28;20056;-74
2023/05/29 09:25:41;;;;;;;10.02;3.20;;;;;;;-145.79;44.10;78053.50;5262773;28;20052;-73
2023/05/29 09:28:13;;;;;;;8.15;2.88;;;;;;;-145.79;43.45;78055.63;5263722;28;20100;-72
2023/05/29 09:30:49;;;;;;;8.98;2.92;;;;;;;-145.79;43.61;78064.09;5262907;28;20139;-71
2023/05/29 09:33:20;;;;;;;10.63;3.15;;;;;;;-145.79;43.42;78055.63;5262634;28;20031;-72
2023/05/29 09:35:52;;;;;;;5.70;2.95;;;;;;;-145.79;43.74;78025.94;5262644;28;20028;-72
2023/05/29 09:38:23;;;;;;;10.85;4.32;;;;;;;-145.79;42.97;78030.19;5262503;28;20032;-71
2023/05/29 09:41:00;;;;;;;10.07;3.55;;;;;;;-145.79;42.81;78004.72;5257781;28;20116;-69
2023/05/29 09:43:32;;;;;;;8.35;3.63;;;;;;;-145.79;43.01;77994.13;5242790;28;20057;-70
2023/05/29 09:46:06;;;;;;;8.40;2.90;;;;;;;-145.79;43.17;77981.41;5241064;28;20036;-72
2023/05/29 09:48:38;;;;;;;7.68;2.88;;;;;;;-145.79;42.92;77972.94;5244807;28;20057;-73
2023/05/29 09:51:22;;;;;;;9.90;3.75;;;;;;;-145.79;42.62;77964.47;5262510;28;20480;-72
2023/05/29 09:53:56;;;;;;;6.22;2.78;;;;;;;-145.79;42.29;77972.94;5262581;28;20507;-72
2023/05/29 09:56:29;;;;;;;7.25;4.30;;;;;;;-145.79;42.56;77953.84;5263282;28;20044;-72
2023/05/29 09:59:01;;;;;;;7.97;3.03;;;;;;;-145.79;42.46;77939.00;5262185;28;20029;-72
2023/05/29 10:01:32;;;;;;;8.30;2.95;;;;;;;-145.79;41.91;77943.25;5263082;28;20060;-73
2023/05/29 10:04:03;;;;;;;10.40;3.50;;;;;;;-145.79;41.98;77943.25;5262919;28;20215;-72
2023/05/29 10:06:36;;;;;;;11.35;3.50;;;;;;;-145.79;42.44;77975.06;5261195;28;20048;-72
2023/05/29 10:09:10;;;;;;;8.57;3.33;;;;;;;-145.79;42.73;77962.34;5256617;28;20052;-72
2023/05/29 10:11:48;;;;;;;8.75;3.33;;;;;;;-145.79;42.87;77934.78;5262433;28;20075;-74
2023/05/29 10:14:22;;;;;;;7.90;3.45;;;;;;;-145.79;42.38;77917.81;5262098;28;20392;-72
2023/05/29 10:16:58;;;;;;;36.05;27.92;;;;;;;-145.79;42.48;77911.47;5262794;28;20036;-72
2023/05/29 10:19:31;;;;;;;10.02;3.30;;;;;;;-145.79;41.87;77907.22;5262482;28;20033;-72
2023/05/29 10:22:05;;;;;;;9.82;3.42;;;;;;;-145.79;41.80;77902.97;5260663;28;20051;-73
2023/05/29 10:24:37;;;;;;;10.38;3.42;;;;;;;-145.79;42.35;77869.06;5247985;28;20025;-72
2023/05/29 10:27:09;;;;;;;10.00;3.85;;;;;;;-145.79;41.76;77877.53;5258881;28;20028;-72
2023/05/29 10:29:53;;;;;;;7.38;3.42;;;;;;;-145.79;41.85;77858.47;5262388;28;20013;-72
2023/05/29 10:32:39;;;;;;;9.65;3.22;;;;;;;-145.79;41.36;77847.84;5262178;28;20028;-72
2023/05/29 10:35:25;;;;;;;6.07;2.95;;;;;;;-145.79;41.54;77847.84;5261522;28;20115;-73
2023/05/29 10:38:02;;;;;;;11.88;3.60;;;;;;;-145.79;41.47;77839.38;5262199;28;20021;-73
2023/05/29 10:40:34;;;;;;;7.78;2.92;;;;;;;-145.79;41.15;77820.31;5260802;28;20049;-72
2023/05/29 10:43:09;;;;;;;10.65;2.88;;;;;;;-145.79;41.05;77820.31;5260565;28;20079;-72
2023/05/29 10:45:40;;;;;;;6.43;3.17;;;;;;;-145.79;40.52;77826.66;5262541;28;20429;-72
2023/05/29 10:48:11;;;;;;;7.85;3.00;;;;;;;-145.79;40.64;77803.34;5261109;28;20040;-72
2023/05/29 10:50:46;;;;;;;12.05;3.63;;;;;;;-145.79;40.84;77862.69;5262115;28;20056;-72
2023/05/29 10:53:24;;;;;;;7.88;3.60;;;;;;;-145.79;40.85;77843.63;5262046;28;20029;-73
2023/05/29 10:55:55;;;;;;;7.97;3.05;;;;;;;-145.79;40.13;77852.09;5261232;28;20424;-73
2023/05/29 10:58:27;;;;;;;12.00;2.83;;;;;;;-145.79;40.50;77849.97;5260998;28;20037;-72
2023/05/29 11:00:58;;;;;;;8.05;3.13;;;;;;;-145.79;40.77;77822.41;5261099;28;20031;-73
2023/05/29 11:03:31;;;;;;;10.73;5.90;;;;;;;-145.79;41.21;77809.69;5261038;28;20025;-72
2023/05/29 11:06:16;;;;;;;7.45;3.10;;;;;;;-145.79;40.31;77805.47;5262136;28;20017;-73
2023/05/29 11:08:53;;;;;;;6.75;3.10;;;;;;;-145.79;40.64;77756.72;5261949;28;20136;-73
2023/05/29 11:11:28;;;;;;;9.48;3.75;;;;;;;-145.79;39.96;77741.88;5261792;28;20075;-73
2023/05/29 11:14:06;;;;;;;8.77;3.03;;;;;;;-145.79;39.61;77756.72;5260802;28;20380;-72
2023/05/29 11:16:38;;;;;;;6.55;3.20;;;;;;;-145.79;39.78;77746.09;5260209;28;20029;-73
2023/05/29 11:19:12;;;;;;;7.57;3.20;;;;;;;-145.79;40.09;77739.75;5261687;28;20032;-73
2023/05/29 11:22:18;;;;;;;8.10;3.33;;;;;;;-145.79;39.89;77737.63;5261649;28;20531;-73
2023/05/29 11:24:51;;;;;;;9.70;3.65;;;;;;;-145.79;39.78;77733.38;5240094;28;20053;-72
2023/05/29 11:27:23;;;;;;;9.13;3.30;;;;;;;-145.79;40.20;77716.44;5241031;28;20052;-73
2023/05/29 11:29:56;;;;;;;7.53;2.65;;;;;;;-145.79;39.30;77718.56;5241164;28;20099;-72
2023/05/29 11:32:30;;;;;;;10.00;3.40;;;;;;;-145.79;39.46;77724.91;5258673;28;20032;-73
2023/05/29 11:35:08;;;;;;;9.70;3.78;;;;;;;-145.79;39.77;77724.91;5260668;28;20372;-71
2023/05/29 11:37:45;;;;;;;6.13;3.03;;;;;;;-145.79;39.74;77720.66;5259852;28;20029;-69
2023/05/29 11:40:17;;;;;;;6.97;2.88;;;;;;;-145.79;40.56;77701.59;5252621;28;20044;-69
2023/05/29 11:42:48;;;;;;;9.63;3.42;;;;;;;-145.79;39.77;77716.44;5243103;28;20033;-71
2023/05/29 11:45:21;;;;;;;8.02;3.28;;;;;;;-145.79;40.24;77703.72;5239869;28;20052;-69
2023/05/29 11:47:58;;;;;;;7.28;3.20;;;;;;;-145.79;39.20;77701.59;5249436;28;20496;-68
2023/05/29 11:50:32;;;;;;;6.82;3.42;;;;;;;-145.79;39.59;77699.47;5261121;28;20032;-70
2023/05/29 11:53:06;;;;;;;6.88;3.13;;;;;;;-145.79;39.03;77674.03;5250244;28;20036;-69
2023/05/29 11:55:37;;;;;;;6.45;3.53;;;;;;;-145.79;40.00;77716.44;5259349;28;20477;-70
2023/05/29 11:58:09;;;;;;;8.15;3.88;;;;;;;-145.79;39.06;77705.84;5255159;28;20029;-68
2023/05/29 12:00:41;;;;;;;6.72;2.95;;;;;;;-145.79;39.72;77729.16;5241085;28;20022;-70
2023/05/29 12:03:13;;;;;;;6.95;3.58;;;;;;;-145.79;39.76;77707.94;5255133;28;20032;-69
2023/05/29 12:05:46;;;;;;;9.20;2.90;;;;;;;-145.79;39.75;77697.34;5259819;28;20025;-69
2023/05/29 12:08:21;;;;;;;13.20;3.25;;;;;;;-145.79;39.45;77669.78;5251431;28;20152;-68
2023/05/29 12:10:53;;;;;;;7.30;2.72;;;;;;;-145.79;39.58;77695.22;5244933;28;20026;-69
2023/05/29 12:13:24;;;;;;;8.18;3.33;;;;;;;-145.79;39.42;77669.78;5244092;28;20030;-69
2023/05/29 12:16:05;;;;;;;9.35;3.10;;;;;;;-145.79;39.47;77640.13;5262789;28;20021;-68
2023/05/29 12:18:36;;;;;;;11.20;4.80;;;;;;;-145.79;38.83;77635.88;5265189;28;20021;-67
2023/05/29 12:21:08;;;;;;;5.63;2.88;;;;;;;-145.79;39.11;77642.25;5263914;28;20056;-67
2023/05/29 12:23:39;;;;;;;5.30;2.70;;;;;;;-145.79;38.25;77635.88;5255219;28;20033;-67
2023/05/29 12:26:12;;;;;;;11.90;3.47;;;;;;;-145.79;38.50;77633.75;5262082;28;20029;-67
2023/05/29 12:28:45;;;;;;;6.40;2.88;;;;;;;-145.79;37.36;77669.78;5263775;28;20024;-66
2023/05/29 12:31:29;;;;;;;7.53;2.75;;;;;;;-145.79;37.83;77638.00;5264711;28;20021;-66
2023/05/29 12:34:14;;;;;;;7.20;3.03;;;;;;;-145.79;37.94;77635.88;5262028;28;20498;-67
2023/05/29 12:36:45;;;;;;;7.32;2.85;;;;;;;-145.79;38.11;77625.28;5263802;28;20027;-68
2023/05/29 12:39:16;;;;;;;5.35;2.53;;;;;;;-145.79;37.78;77618.91;5255501;28;20461;-67
2023/05/29 12:41:48;;;;;;;7.28;2.90;;;;;;;-145.79;37.77;77618.91;5250722;28;20041;-67
2023/05/29 12:44:19;;;;;;;5.47;2.63;;;;;;;-145.79;37.45;77627.41;5243576;28;20022;-67
2023/05/29 12:46:56;;;;;;;5.43;2.38;;;;;;;-145.79;37.80;77627.41;5244110;28;20022;-67
2023/05/29 12:49:29;;;;;;;10.93;3.80;;;;;;;-145.79;37.27;77635.88;5243016;28;20048;-67
2023/05/29 12:52:07;;;;;;;6.93;3.08;;;;;;;-145.79;37.74;77633.75;5243761;28;20053;-68
2023/05/29 12:54:39;;;;;;;7.65;2.60;;;;;;;-145.79;37.44;77635.88;5262382;28;20476;-67
2023/05/29 12:57:10;;;;;;;8.05;3.22;;;;;;;-145.79;36.49;77618.91;5255182;28;20120;-69
2023/05/29 12:59:41;;;;;;;11.15;3.58;;;;;;;-145.79;36.32;77638.00;5243797;28;20033;-68
2023/05/29 13:02:13;;;;;;;7.30;2.67;;;;;;;-145.79;36.17;77640.13;5243029;28;20413;-68
2023/05/29 13:04:45;;;;;;;5.95;2.80;;;;;;;-145.79;36.28;77610.44;5243173;28;20025;-68
2023/05/29 13:07:16;;;;;;;10.98;2.90;;;;;;;-145.79;36.17;77625.28;5243475;28;20022;-68
2023/05/29 13:09:47;;;;;;;4.85;2.30;;;;;;;-145.79;36.22;77618.91;5242628;28;20117;-68
2023/05/29 13:12:21;;;;;;;5.70;2.47;;;;;;;-145.79;36.36;77597.72;5245367;28;20031;-66
2023/05/29 13:14:55;;;;;;;7.03;3.33;;;;;;;-145.79;36.35;77621.03;5252336;28;20032;-67
2023/05/29 13:17:27;;;;;;;10.95;3.13;;;;;;;-145.79;35.93;77631.63;5246051;28;20028;-68
2023/05/29 13:19:58;;;;;;;9.45;3.60;;;;;;;-145.79;36.54;77623.16;5249361;28;20033;-68
2023/05/29 13:22:31;;;;;;;6.80;2.88;;;;;;;-145.79;36.15;77631.63;5253029;28;20045;-68
2023/05/29 13:25:04;;;;;;;7.75;2.70;;;;;;;-145.79;36.51;77623.16;5260016;28;20028;-68
2023/05/29 13:27:41;;;;;;;4.57;2.55;;;;;;;-145.79;35.88;77623.16;5261814;28;20070;-68
2023/05/29 13:30:13;;;;;;;7.97;2.65;;;;;;;-145.79;37.32;77627.41;5261520;28;20029;-68
2023/05/29 13:32:45;;;;;;;10.23;3.08;;;;;;;-145.79;35.59;77627.41;5262741;28;20032;-68
2023/05/29 13:35:16;;;;;;;7.25;3.17;;;;;;;-145.79;35.76;77616.81;5262787;28;20040;-69
2023/05/29 13:37:50;;;;;;;8.63;3.50;;;;;;;-145.79;35.69;77612.56;5260155;28;20188;-68
2023/05/29 13:40:21;;;;;;;7.55;3.17;;;;;;;-145.79;36.09;77618.91;5263631;28;20021;-68
2023/05/29 13:42:52;;;;;;;7.40;3.13;;;;;;;-145.79;35.91;77585.00;5263317;28;20032;-68
2023/05/29 13:45:24;;;;;;;5.75;2.80;;;;;;;-145.79;36.16;77593.47;5262731;28;20063;-68
2023/05/29 13:47:55;;;;;;;5.90;2.72;;;;;;;-145.79;34.64;77612.56;5262413;28;20075;-68
2023/05/29 13:50:27;;;;;;;8.82;3.05;;;;;;;-145.79;34.76;77606.19;5261438;28;20423;-68
2023/05/29 13:52:58;;;;;;;8.60;3.28;;;;;;;-145.79;34.81;77572.28;5256104;28;20033;-68
2023/05/29 13:55:29;;;;;;;8.85;4.13;;;;;;;-145.79;34.96;77563.81;5242517;28;20031;-68
2023/05/29 13:58:01;;;;;;;5.38;3.17;;;;;;;-145.79;34.28;77542.59;5241482;28;20437;-68
2023/05/29 14:00:32;;;;;;;9.32;3.08;;;;;;;-145.79;33.03;77546.84;5241250;28;20025;-68
2023/05/29 14:03:03;;;;;;;8.45;2.90;;;;;;;-145.79;33.77;77538.38;5242144;28;20027;-68
2023/05/29 14:05:35;;;;;;;7.38;2.85;;;;;;;-145.79;33.29;77532.00;5242153;28;20411;-68
2023/05/29 14:08:06;;;;;;;7.15;3.35;;;;;;;-145.79;33.36;77546.84;5253125;28;20116;-71
2023/05/29 14:10:38;;;;;;;6.70;3.38;;;;;;;-145.79;33.43;77542.59;5262642;28;20036;-70
2023/05/29 14:13:09;;;;;;;6.30;2.70;;;;;;;-145.79;34.01;77504.47;5260871;28;20021;-70
2023/05/29 14:15:40;;;;;;;7.90;3.38;;;;;;;-145.79;33.98;77515.06;5258639;28;20036;-69
2023/05/29 14:18:12;;;;;;;11.30;3.63;;;;;;;-145.79;34.35;77527.78;5242008;28;20029;-71
2023/05/29 14:20:47;;;;;;;11.40;3.60;;;;;;;-145.79;34.40;77525.66;5241983;28;20017;-71
2023/05/29 14:23:19;;;;;;;8.80;3.92;;;;;;;-145.79;34.15;77500.22;5256296;28;20131;-69
2023/05/29 14:25:51;;;;;;;11.88;3.80;;;;;;;-145.79;33.89;77504.47;5241002;28;20437;-69
2023/05/29 14:28:22;;;;;;;9.35;3.50;;;;;;;-145.79;34.24;77495.97;5242744;28;20033;-68
2023/05/29 14:30:56;;;;;;;8.88;3.28;;;;;;;-145.79;33.77;77487.50;5241045;28;20400;-69
2023/05/29 14:33:27;;;;;;;9.30;3.38;;;;;;;-145.79;33.81;77483.25;5240880;28;20030;-70
2023/05/29 14:35:59;;;;;;;8.73;3.20;;;;;;;-145.79;34.47;77504.47;5250929;28;20036;-69
2023/05/29 14:38:30;;;;;;;8.98;3.17;;;;;;;-145.79;34.50;77495.97;5243786;28;20053;-69
2023/05/29 14:41:02;;;;;;;10.85;3.22;;;;;;;-145.79;34.68;77491.75;5250669;28;20021;-68
2023/05/29 14:43:33;;;;;;;10.90;3.95;;;;;;;-145.79;35.03;77512.94;5240899;28;20041;-68
2023/05/29 14:46:05;;;;;;;8.35;3.72;;;;;;;-145.79;33.94;77495.97;5241127;28;20522;-68
2023/05/29 14:48:36;;;;;;;7.22;3.92;;;;;;;-145.79;33.41;77472.66;5239790;28;20417;-69
2023/05/29 14:51:09;;;;;;;8.40;3.35;;;;;;;-145.79;33.80;77468.41;5252668;28;20473;-69
2023/05/29 14:53:40;;;;;;;12.82;3.83;;;;;;;-145.79;33.21;77468.41;5246267;28;20027;-69
2023/05/29 14:56:11;;;;;;;8.00;3.00;;;;;;;-145.79;33.15;77489.63;5244679;28;20480;-69
2023/05/29 14:58:42;;;;;;;10.05;4.10;;;;;;;-145.79;33.74;77466.31;5248135;28;20017;-70
2023/05/29 15:01:16;;;;;;;8.98;3.38;;;;;;;-145.79;33.44;77491.75;5241225;28;20029;-72
2023/05/29 15:03:47;;;;;;;10.68;4.82;;;;;;;-145.79;33.41;77479.03;5241058;28;20022;-72
2023/05/29 15:06:18;;;;;;;9.80;3.97;;;;;;;-145.79;33.33;77474.78;5241435;28;20068;-72
2023/05/29 15:08:50;;;;;;;9.48;4.65;;;;;;;-145.79;34.45;77470.53;5242179;28;20021;-74
2023/05/29 15:11:22;;;;;;;15.95;4.25;;;;;;;-145.79;33.67;77449.34;5249952;28;20033;-69
2023/05/29 15:13:53;;;;;;;6.85;3.05;;;;;;;-145.79;33.87;77470.53;5256510;28;20021;-70
2023/05/29 15:16:25;;;;;;;8.15;3.88;;;;;;;-145.79;33.46;77466.31;5252264;28;20055;-70
2023/05/29 15:18:56;;;;;;;9.65;3.88;;;;;;;-145.79;33.69;77440.88;5251902;28;20448;-70
2023/05/29 15:21:27;;;;;;;7.95;3.55;;;;;;;-145.79;33.21;77445.09;5236806;28;20144;-70
2023/05/29 15:23:59;;;;;;;8.68;3.80;;;;;;;-145.79;33.27;77445.09;5245157;28;20025;-71
2023/05/29 15:26:30;;;;;;;12.27;4.50;;;;;;;-145.79;33.66;77417.53;5257352;28;20045;-71
2023/05/29 15:29:01;;;;;;;10.45;3.47;;;;;;;-145.79;32.97;77445.09;5255362;28;20014;-67
2023/05/29 15:31:33;;;;;;;6.95;3.42;;;;;;;-145.79;32.79;77449.34;5250590;28;20033;-68
2023/05/29 15:34:04;;;;;;;8.43;4.53;;;;;;;-145.79;32.84;77455.69;5248335;28;20037;-66
2023/05/29 15:36:38;;;;;;;9.50;3.63;;;;;;;-145.79;32.73;77457.81;5240149;28;20477;-67
2023/05/29 15:39:09;;;;;;;9.90;4.07;;;;;;;-145.79;32.93;77440.88;5240812;28;20033;-66
2023/05/29 15:41:41;;;;;;;13.85;4.82;;;;;;;-145.79;32.45;77449.34;5247730;28;20333;-69
2023/05/29 15:44:12;;;;;;;10.20;3.30;;;;;;;-145.79;32.54;77445.09;5246831;28;20463;-69
2023/05/29 15:46:43;;;;;;;8.73;3.80;;;;;;;-145.79;32.65;77426.03;5257971;28;20381;-68
2023/05/29 15:49:15;;;;;;;9.18;2.88;;;;;;;-145.79;32.09;77428.16;5254488;28;20025;-70
2023/05/29 15:51:46;;;;;;;13.90;4.43;;;;;;;-145.79;31.97;77434.50;5254037;28;20025;-70
2023/05/29 15:54:17;;;;;;;10.55;4.05;;;;;;;-145.79;32.38;77466.31;5265679;28;20040;-69
2023/05/29 15:56:48;;;;;;;8.23;3.72;;;;;;;-145.79;32.51;77436.63;5265832;28;20096;-70
2023/05/29 15:59:20;;;;;;;10.50;3.70;;;;;;;-145.79;32.37;77415.44;5245396;28;20033;-69
2023/05/29 16:01:51;;;;;;;11.32;4.55;;;;;;;-145.79;32.07;77430.25;5249847;28;20038;-71
2023/05/29 16:04:22;;;;;;;7.15;4.03;;;;;;;-145.79;31.71;77449.34;5248946;28;20025;-67
2023/05/29 16:06:54;;;;;;;8.93;3.65;;;;;;;-145.79;33.46;77434.50;5248571;28;20079;-67
2023/05/29 16:09:27;;;;;;;8.27;3.72;;;;;;;-145.79;32.57;77426.03;5255636;28;20024;-67
2023/05/29 16:11:59;;;;;;;13.20;4.30;;;;;;;-145.79;31.97;77415.44;5243877;28;20021;-67
2023/05/29 16:14:30;;;;;;;9.57;3.42;;;;;;;-145.79;32.64;77419.66;5244539;28;20480;-68
2023/05/29 16:17:01;;;;;;;6.78;3.30;;;;;;;-145.79;32.67;77423.91;5254886;28;20036;-68
2023/05/29 16:19:33;;;;;;;7.75;3.90;;;;;;;-145.79;31.03;77398.47;5263765;28;20029;-68
2023/05/29 16:22:04;;;;;;;7.65;3.35;;;;;;;-145.79;30.74;77411.19;5261703;28;20091;-67
2023/05/29 16:24:36;;;;;;;8.32;3.38;;;;;;;-145.79;30.46;77409.06;5264978;28;20092;-68
2023/05/29 16:27:08;;;;;;;7.38;3.60;;;;;;;-145.79;30.97;77398.47;5263699;28;20025;-68
2023/05/29 16:29:42;;;;;;;6.97;3.17;;;;;;;-145.79;31.98;77404.84;5244052;28;20079;-67
2023/05/29 16:32:13;;;;;;;8.90;3.60;;;;;;;-145.79;31.11;77409.06;5244162;28;20029;-69
2023/05/29 16:34:45;;;;;;;6.95;3.50;;;;;;;-145.79;32.19;77398.47;5249248;28;20476;-67
2023/05/29 16:37:16;;;;;;;7.93;3.28;;;;;;;-145.79;32.50;77379.41;5256035;28;20075;-67
2023/05/29 16:39:47;;;;;;;8.77;3.85;;;;;;;-145.79;29.78;77381.50;5243683;28;20124;-65
2023/05/29 16:42:19;;;;;;;9.05;3.00;;;;;;;-145.79;30.67;77383.63;5244056;28;20033;-67
2023/05/29 16:44:50;;;;;;;10.90;3.15;;;;;;;-145.79;32.06;77394.22;5243546;28;20041;-66
2023/05/29 16:47:22;;;;;;;7.70;3.13;;;;;;;-145.79;31.47;77387.88;5243257;28;20017;-66
2023/05/29 16:49:54;;;;;;;11.82;3.80;;;;;;;-145.79;30.85;77387.88;5243717;28;20782;-67
2023/05/29 16:52:25;;;;;;;11.98;3.30;;;;;;;-145.79;30.60;77381.50;5243216;28;20025;-67
